createdAt,value
2023-03-31T00:00:34.207Z,21.4
2023-03-31T00:15:32.393Z,21.4
2023-03-31T00:30:32.832Z,21.4
2023-03-31T00:45:32.481Z,21.4
2023-03-31T01:00:33.027Z,21.4
2023-03-31T01:15:32.383Z,21.3
2023-03-31T01:30:32.629Z,21.3
2023-03-31T01:45:32.304Z,21.3
2023-03-31T02:00:32.908Z,21.3
2023-03-31T02:15:31.991Z,21.3
2023-03-31T02:30:32.866Z,21.3
2023-03-31T02:45:32.541Z,21.2
2023-03-31T03:00:32.448Z,21.2
2023-03-31T03:15:32.317Z,21.2
2023-03-31T03:30:32.818Z,21.2
2023-03-31T03:45:32.962Z,21.2
2023-03-31T04:00:32.403Z,21.2
2023-03-31T04:15:32.398Z,21.2
2023-03-31T04:30:32.807Z,21.2
2023-03-31T04:45:32.823Z,21.2
2023-03-31T05:00:33.911Z,21.2
2023-03-31T05:15:33.955Z,21.2
2023-03-31T05:30:34.134Z,21.2
2023-03-31T05:45:33.776Z,21.2
2023-03-31T06:00:35.550Z,21.2
2023-03-31T06:15:32.233Z,21.2
2023-03-31T06:30:34.756Z,21.2
2023-03-31T06:45:32.548Z,21.3
2023-03-31T07:00:37.221Z,21.3
2023-03-31T07:15:32.935Z,21.3
2023-03-31T07:30:35.986Z,21.4
2023-03-31T07:45:32.666Z,21.4
2023-03-31T08:00:34.412Z,21.4
2023-03-31T08:15:32.456Z,21.4
2023-03-31T08:30:33.268Z,21.5
2023-03-31T08:45:32.846Z,21.5
2023-03-31T09:00:35.432Z,21.5
2023-03-31T09:15:32.225Z,21.6
2023-03-31T09:30:34.195Z,21.7
2023-03-31T09:45:32.659Z,21.8
2023-03-31T10:00:35.127Z,21.8
2023-03-31T10:15:32.363Z,21.8
2023-03-31T10:30:33.703Z,21.8
2023-03-31T10:45:37.623Z,21.8
2023-03-31T11:00:35.262Z,21.9
2023-03-31T11:15:32.184Z,21.9
2023-03-31T11:30:33.105Z,21.9
2023-03-31T11:45:32.485Z,21.9
2023-03-31T12:00:36.785Z,21.9
2023-03-31T12:15:33.041Z,21.9
2023-03-31T12:30:33.596Z,22
2023-03-31T12:45:32.828Z,22
2023-03-31T13:00:34.596Z,22.0
2023-03-31T13:15:32.365Z,22
2023-03-31T13:30:32.651Z,22
2023-03-31T13:45:32.935Z,22.2
2023-03-31T14:00:37.707Z,22.1
2023-03-31T14:15:32.286Z,22.1
2023-03-31T14:30:36.737Z,22.0
2023-03-31T14:45:33.196Z,22.0
2023-03-31T15:00:32.635Z,22
2023-03-31T15:15:32.831Z,22
2023-03-31T15:30:37.629Z,22
2023-03-31T15:45:32.606Z,22
2023-03-31T16:00:37.338Z,22
2023-03-31T16:15:32.654Z,21.9
2023-03-31T16:30:36.645Z,21.9
2023-03-31T16:45:32.941Z,21.9
2023-03-31T17:00:36.415Z,21.9
2023-03-31T17:15:33.653Z,21.8
2023-03-31T17:30:36.152Z,21.8
2023-03-31T17:45:32.972Z,21.8
2023-03-31T18:00:37.519Z,21.8
2023-03-31T18:15:32.422Z,21.7
2023-03-31T18:30:32.853Z,21.7
2023-03-31T18:45:33.019Z,21.6
2023-03-31T19:00:35.550Z,21.6
2023-03-31T19:15:33.287Z,21.6
2023-03-31T19:30:32.972Z,21.5
2023-03-31T19:45:32.642Z,21.5
2023-03-31T20:00:34.855Z,21.4
2023-03-31T20:15:33.106Z,21.4
2023-03-31T20:30:32.641Z,21.4
2023-03-31T20:45:32.831Z,21.4
2023-03-31T21:00:33.524Z,21.3
2023-03-31T21:15:33.262Z,21.3
2023-03-31T21:30:32.771Z,21.3
2023-03-31T21:45:33.177Z,21.3
2023-03-31T22:00:33.337Z,21.2
2023-03-31T22:15:32.678Z,21.2
2023-03-31T22:30:32.727Z,21.2
2023-03-31T22:45:33.172Z,21.2
2023-03-31T23:00:32.407Z,21.2
2023-03-31T23:15:33.185Z,21.2
2023-03-31T23:30:32.471Z,21.2
2023-03-31T23:45:32.660Z,21.1
